Terminal Aerodrome Forecast
Issued by NWS Charleston, WV

Current Version | Previous Version | Graphics & Text | Print | Product List | Glossary On
Versions: 1 2 3 4 5 6 7 8 9 10 11 12 13 14 15 16 17 18 19 20 21 22 23 24 25
000
FTUS41 KRLX 220546
TAFCRW
TAF
KCRW 220546Z 2206/2306 32006KT P6SM OVC015
     FM220900 00000KT 4SM BR FEW001 SCT015
     FM221200 32004KT P6SM SCT025
     FM221400 32006KT P6SM BKN030
     FM222000 30007KT P6SM SHRA VCTS BKN050CB
     FM230000 33005KT P6SM BKN050
     FM230400 VRB03KT P6SM BKN060=

USA.gov is the U.S. government's official web portal to all federal, state and local government web resources and services.